Time;durP1;ratioP1;P1;durP2;ratioP2;P2;SDS_P1;SDS_P2;PMS_P1;PMS_P2;Temp;Humidity;BMP_temperature;BMP_pressure;BME280_temperature;BME280_humidity;BME280_pressure;Samples;Min_cycle;Max_cycle;Signal;HPM_P1;HPM_P2
2022/10/18 00:00:55;;;;;;;62.55;20.02;;;12.30;99.90;;;;;;5054132;28;20408;-71
2022/10/18 00:03:21;;;;;;;68.50;18.83;;;12.30;99.90;;;;;;5054491;28;20028;-71
2022/10/18 00:05:48;;;;;;;76.10;18.70;;;12.20;99.90;;;;;;5040878;28;20435;-71
2022/10/18 00:08:14;;;;;;;84.63;18.05;;;12.10;99.90;;;;;;5014865;28;20033;-71
2022/10/18 00:10:39;;;;;;;66.65;17.25;;;12.10;99.90;;;;;;5016782;28;20084;-70
2022/10/18 00:13:05;;;;;;;77.55;19.33;;;12.10;99.90;;;;;;5033045;28;20033;-71
2022/10/18 00:15:31;;;;;;;66.82;16.98;;;12.20;99.90;;;;;;5026814;28;20083;-71
2022/10/18 00:17:56;;;;;;;63.58;15.80;;;12.10;99.90;;;;;;5029793;28;20033;-71
2022/10/18 00:20:22;;;;;;;76.40;18.30;;;12.00;99.90;;;;;;5018794;28;20022;-71
2022/10/18 00:22:47;;;;;;;56.72;15.95;;;12.00;99.90;;;;;;5034284;28;20028;-71
2022/10/18 00:25:13;;;;;;;55.35;15.48;;;12.00;99.90;;;;;;5033828;28;20017;-71
2022/10/18 00:27:38;;;;;;;56.45;15.48;;;12.00;99.90;;;;;;5033924;28;20064;-71
2022/10/18 00:30:04;;;;;;;57.97;16.88;;;12.00;99.90;;;;;;5014774;28;20038;-71
2022/10/18 00:32:34;;;;;;;75.97;16.35;;;12.00;99.90;;;;;;5014438;28;20109;-71
2022/10/18 00:34:59;;;;;;;72.38;16.17;;;12.10;99.90;;;;;;5030746;28;20124;-71
2022/10/18 00:37:25;;;;;;;91.45;17.35;;;12.00;99.90;;;;;;5033868;28;20155;-71
2022/10/18 00:39:50;;;;;;;51.38;14.77;;;11.90;99.90;;;;;;5033498;28;20481;-71
2022/10/18 00:42:19;;;;;;;57.15;15.20;;;11.90;99.90;;;;;;5033994;28;20025;-71
2022/10/18 00:44:45;;;;;;;61.25;15.20;;;11.80;99.90;;;;;;5033777;28;20041;-71
2022/10/18 00:47:13;;;;;;;71.70;18.52;;;11.80;99.90;;;;;;5033552;28;20400;-71
2022/10/18 00:49:44;;;;;;;72.85;17.15;;;12.00;99.90;;;;;;5034527;28;20457;-71
2022/10/18 00:52:21;;;;;;;66.72;15.95;;;12.00;99.90;;;;;;5054059;28;20046;-71
2022/10/18 00:54:48;;;;;;;68.70;16.25;;;12.00;99.90;;;;;;5053970;28;20052;-71
2022/10/18 00:57:14;;;;;;;62.70;14.27;;;12.00;99.90;;;;;;5053538;28;20472;-71
2022/10/18 00:59:41;;;;;;;63.58;15.60;;;12.00;99.90;;;;;;5053010;28;20025;-70
2022/10/18 01:02:07;;;;;;;69.78;14.68;;;12.10;99.90;;;;;;5053438;28;20013;-71
2022/10/18 01:04:34;;;;;;;56.38;13.05;;;12.10;99.90;;;;;;5053578;28;20020;-71
2022/10/18 01:07:24;;;;;;;106.47;16.20;;;12.10;99.90;;;;;;5052157;28;20119;-71
2022/10/18 01:10:11;;;;;;;84.75;16.17;;;12.00;99.90;;;;;;5053874;28;20086;-71
2022/10/18 01:13:01;;;;;;;64.18;14.40;;;11.90;99.90;;;;;;5053362;28;20594;-71
2022/10/18 01:15:33;;;;;;;56.40;12.40;;;11.80;99.90;;;;;;5052967;28;20131;-71
2022/10/18 01:18:10;;;;;;;73.70;14.57;;;11.70;99.90;;;;;;5030486;28;20026;-71
2022/10/18 01:21:07;;;;;;;94.50;16.95;;;11.70;99.90;;;;;;5031599;28;20044;-71
2022/10/18 01:24:12;;;;;;;57.70;14.43;;;11.70;99.90;;;;;;5025711;28;20038;-71
2022/10/18 01:26:58;;;;;;;80.28;15.05;;;11.70;99.90;;;;;;5032246;28;20044;-70
2022/10/18 01:29:54;;;;;;;71.05;13.75;;;11.60;99.90;;;;;;5048967;28;20040;-71
2022/10/18 01:32:27;;;;;;;60.45;14.60;;;11.60;99.90;;;;;;5022359;28;20480;-71
2022/10/18 01:34:59;;;;;;;72.28;13.60;;;11.80;99.90;;;;;;5033166;28;20464;-71
2022/10/18 01:37:26;;;;;;;66.35;12.32;;;11.70;99.90;;;;;;5046545;28;20025;-71
2022/10/18 01:39:55;;;;;;;78.55;15.35;;;11.60;99.90;;;;;;5053249;28;20021;-71
2022/10/18 01:42:21;;;;;;;70.28;14.20;;;11.60;99.90;;;;;;5052997;28;20025;-71
2022/10/18 01:44:49;;;;;;;69.25;11.35;;;11.50;99.90;;;;;;5057176;28;20032;-71
2022/10/18 01:47:16;;;;;;;48.65;10.65;;;11.60;99.90;;;;;;5055544;28;20033;-71
2022/10/18 01:49:42;;;;;;;67.70;12.63;;;11.70;99.90;;;;;;5043611;28;20079;-71
2022/10/18 01:52:15;;;;;;;61.75;10.73;;;11.70;99.90;;;;;;5028841;28;20069;-71
2022/10/18 01:54:49;;;;;;;70.28;12.75;;;11.70;99.90;;;;;;5015920;28;20048;-71
2022/10/18 01:57:31;;;;;;;70.10;11.95;;;11.60;99.90;;;;;;5018356;28;20031;-70
2022/10/18 02:00:13;;;;;;;77.88;13.00;;;11.60;99.90;;;;;;5016354;28;20038;-71
2022/10/18 02:03:02;;;;;;;70.72;12.90;;;11.60;99.90;;;;;;5017428;28;20030;-71
2022/10/18 02:05:52;;;;;;;57.83;9.88;;;11.50;99.90;;;;;;5034120;28;20037;-71
2022/10/18 02:08:42;;;;;;;72.78;9.82;;;11.60;99.90;;;;;;5023574;28;20041;-71
2022/10/18 02:11:13;;;;;;;76.72;10.07;;;11.50;99.90;;;;;;5035051;28;20036;-71
2022/10/18 02:13:57;;;;;;;77.70;9.57;;;11.30;99.90;;;;;;5014977;28;20046;-71
2022/10/18 02:16:28;;;;;;;62.87;9.00;;;11.30;99.90;;;;;;5035851;28;20026;-71
2022/10/18 02:19:08;;;;;;;54.55;10.02;;;11.30;99.90;;;;;;5036559;28;20018;-71
2022/10/18 02:21:34;;;;;;;49.10;8.05;;;11.30;99.90;;;;;;5037246;28;20030;-71
2022/10/18 02:24:01;;;;;;;62.30;8.98;;;11.40;99.90;;;;;;5024956;28;20442;-71
2022/10/18 02:26:27;;;;;;;60.40;8.45;;;11.40;99.90;;;;;;5036944;28;20504;-71
2022/10/18 02:28:52;;;;;;;52.22;8.63;;;11.50;99.90;;;;;;5020434;28;20076;-71
2022/10/18 02:31:29;;;;;;;54.80;8.90;;;11.50;99.90;;;;;;5016784;28;20030;-71
2022/10/18 02:34:06;;;;;;;56.83;8.20;;;11.50;99.90;;;;;;5034068;28;20099;-71
2022/10/18 02:36:58;;;;;;;55.83;8.68;;;11.60;99.90;;;;;;5019854;28;20041;-71
2022/10/18 02:39:33;;;;;;;49.33;8.77;;;11.50;99.90;;;;;;5024990;28;20030;-71
2022/10/18 02:41:59;;;;;;;60.35;8.88;;;11.40;99.90;;;;;;5031627;28;20037;-71
2022/10/18 02:44:25;;;;;;;56.75;9.35;;;11.40;99.90;;;;;;5013432;28;20022;-71
2022/10/18 02:46:51;;;;;;;73.35;8.93;;;11.40;99.90;;;;;;5015798;28;20033;-71
2022/10/18 02:49:16;;;;;;;57.08;8.82;;;11.40;99.90;;;;;;5027274;28;20512;-70
2022/10/18 02:51:42;;;;;;;76.25;8.27;;;11.30;99.90;;;;;;5027422;28;20033;-71
2022/10/18 02:54:08;;;;;;;73.68;10.77;;;11.20;99.90;;;;;;5022572;28;20117;-70
2022/10/18 02:56:34;;;;;;;58.80;11.52;;;11.20;99.90;;;;;;5037312;28;20041;-71
2022/10/18 02:59:00;;;;;;;66.07;14.80;;;11.30;99.90;;;;;;5020291;28;20116;-71
2022/10/18 03:01:26;;;;;;;75.15;15.57;;;11.20;99.90;;;;;;5027677;28;20057;-71
2022/10/18 03:03:51;;;;;;;60.50;16.02;;;11.10;99.90;;;;;;5022436;28;20056;-71
2022/10/18 03:06:17;;;;;;;49.78;16.23;;;11.10;99.90;;;;;;5032285;28;20033;-71
2022/10/18 03:08:42;;;;;;;92.47;17.70;;;11.10;99.90;;;;;;5023088;28;20487;-71
2022/10/18 03:11:08;;;;;;;49.35;16.17;;;11.10;99.90;;;;;;5022481;28;20029;-71
2022/10/18 03:13:33;;;;;;;89.47;18.45;;;11.10;99.90;;;;;;5024111;28;20431;-70
2022/10/18 03:15:59;;;;;;;61.80;17.35;;;11.20;99.90;;;;;;5016182;28;20073;-71
2022/10/18 03:18:25;;;;;;;261.20;24.75;;;11.20;99.90;;;;;;5028243;28;20025;-70
2022/10/18 03:20:51;;;;;;;42.72;15.95;;;11.30;99.90;;;;;;5026667;28;20094;-71
2022/10/18 03:23:16;;;;;;;239.05;24.00;;;11.20;99.90;;;;;;5026672;28;20041;-71
2022/10/18 03:25:42;;;;;;;68.65;18.48;;;11.20;99.90;;;;;;5026618;28;20033;-71
2022/10/18 03:28:07;;;;;;;61.92;17.88;;;11.20;99.90;;;;;;5018050;28;20033;-71
2022/10/18 03:30:33;;;;;;;75.60;19.23;;;11.20;99.90;;;;;;5015649;28;20029;-70
2022/10/18 03:32:59;;;;;;;53.65;17.85;;;11.30;99.90;;;;;;5033477;28;20124;-71
2022/10/18 03:35:25;;;;;;;48.50;19.80;;;11.20;99.90;;;;;;5030191;28;20485;-71
2022/10/18 03:37:50;;;;;;;64.47;19.08;;;11.20;99.90;;;;;;5014143;28;20045;-71
2022/10/18 03:40:16;;;;;;;97.68;20.38;;;11.20;99.90;;;;;;5024006;28;20029;-71
2022/10/18 03:42:42;;;;;;;67.47;20.10;;;11.20;99.90;;;;;;5043067;28;20029;-71
2022/10/18 03:45:08;;;;;;;80.93;21.13;;;11.20;99.90;;;;;;5016752;28;20111;-71
2022/10/18 03:47:33;;;;;;;69.70;20.35;;;11.20;99.90;;;;;;5050393;23;20049;-75
2022/10/18 03:49:59;;;;;;;61.92;16.30;;;11.30;99.90;;;;;;5015668;28;20384;-74
2022/10/18 03:52:24;;;;;;;74.80;16.85;;;11.30;99.90;;;;;;5027281;28;20470;-74
2022/10/18 03:54:50;;;;;;;70.35;17.17;;;11.50;99.90;;;;;;5015450;28;20042;-75
2022/10/18 03:57:15;;;;;;;89.85;18.52;;;11.60;99.90;;;;;;5015150;28;20101;-74
2022/10/18 03:59:41;;;;;;;92.28;17.77;;;11.70;99.90;;;;;;5026447;28;20028;-75
2022/10/18 04:02:06;;;;;;;66.22;15.45;;;11.70;99.90;;;;;;5034937;28;20029;-75
2022/10/18 04:04:32;;;;;;;94.05;16.38;;;11.70;99.90;;;;;;5020086;28;20034;-74
2022/10/18 04:06:57;;;;;;;97.65;15.30;;;11.80;99.90;;;;;;5014904;28;20038;-75
2022/10/18 04:09:23;;;;;;;103.43;17.95;;;11.80;99.90;;;;;;5030937;28;20034;-75
2022/10/18 04:11:51;;;;;;;96.88;19.00;;;11.90;99.90;;;;;;5030162;28;20037;-74
2022/10/18 04:14:20;;;;;;;76.95;16.33;;;12.00;99.90;;;;;;5017005;28;20112;-75
2022/10/18 04:16:45;;;;;;;87.45;15.77;;;12.00;99.90;;;;;;5025961;28;20025;-74
2022/10/18 04:19:11;;;;;;;87.90;16.63;;;11.90;99.90;;;;;;5014891;28;20374;-74
2022/10/18 04:21:36;;;;;;;107.70;18.70;;;11.90;99.90;;;;;;5025153;28;20018;-74
2022/10/18 04:24:02;;;;;;;138.25;25.02;;;12.00;99.90;;;;;;5014704;28;20121;-75
2022/10/18 04:26:28;;;;;;;121.18;21.58;;;12.10;99.90;;;;;;5019878;28;20025;-74
2022/10/18 04:28:53;;;;;;;97.43;21.35;;;12.20;99.90;;;;;;5034610;28;20391;-74
2022/10/18 04:31:19;;;;;;;113.88;19.48;;;12.20;99.90;;;;;;5024546;28;20029;-74
2022/10/18 04:33:44;;;;;;;144.45;21.05;;;12.20;99.90;;;;;;5013269;28;20465;-75
2022/10/18 04:36:10;;;;;;;101.35;19.80;;;12.20;99.90;;;;;;5014523;28;20026;-74
2022/10/18 04:38:35;;;;;;;92.97;19.58;;;12.20;99.90;;;;;;5014505;28;20026;-74
2022/10/18 04:41:01;;;;;;;91.10;20.42;;;12.30;99.90;;;;;;5020866;28;20075;-74
2022/10/18 04:43:26;;;;;;;87.57;21.02;;;12.40;99.90;;;;;;5021794;28;20398;-74
2022/10/18 04:45:52;;;;;;;129.70;23.23;;;12.40;99.90;;;;;;5014486;28;20084;-75
2022/10/18 04:48:18;;;;;;;83.18;19.30;;;12.50;99.90;;;;;;5012787;28;20034;-74
2022/10/18 04:50:48;;;;;;;94.55;20.05;;;12.50;99.90;;;;;;5025286;28;20022;-75
2022/10/18 04:53:14;;;;;;;81.30;21.63;;;12.40;99.90;;;;;;5013990;28;20028;-74
2022/10/18 04:55:44;;;;;;;112.05;22.50;;;12.40;99.90;;;;;;5025998;28;20500;-74
2022/10/18 04:58:09;;;;;;;80.45;22.15;;;12.40;99.90;;;;;;5025447;28;20025;-74
2022/10/18 05:00:36;;;;;;;87.88;22.48;;;12.40;99.90;;;;;;5020303;28;20088;-74
2022/10/18 05:03:02;;;;;;;85.75;21.55;;;12.30;99.90;;;;;;5027512;28;20029;-74
2022/10/18 05:05:27;;;;;;;79.57;21.52;;;12.30;99.90;;;;;;5014133;28;20037;-74
2022/10/18 05:07:53;;;;;;;93.80;24.92;;;12.30;99.90;;;;;;5014200;28;20392;-74
2022/10/18 05:10:18;;;;;;;88.00;24.33;;;12.30;99.90;;;;;;5014100;28;20026;-74
2022/10/18 05:12:44;;;;;;;87.97;23.65;;;12.30;99.90;;;;;;5023268;28;20036;-74
2022/10/18 05:15:09;;;;;;;105.97;26.83;;;12.30;99.90;;;;;;5030239;28;20030;-74
2022/10/18 05:17:35;;;;;;;107.65;26.85;;;12.20;99.90;;;;;;5035140;28;20018;-74
2022/10/18 05:20:00;;;;;;;104.68;30.55;;;12.20;99.90;;;;;;5035625;28;20033;-74
2022/10/18 05:22:26;;;;;;;121.10;29.58;;;12.20;99.90;;;;;;5023130;28;20116;-75
2022/10/18 05:24:52;;;;;;;112.10;28.23;;;12.20;99.90;;;;;;5025572;28;20037;-74
2022/10/18 05:27:17;;;;;;;136.40;29.60;;;12.30;99.90;;;;;;5023346;28;20034;-74
2022/10/18 05:29:43;;;;;;;102.35;28.65;;;12.20;99.90;;;;;;5018822;28;20064;-74
2022/10/18 05:32:08;;;;;;;138.80;29.90;;;12.20;99.90;;;;;;5018480;28;20030;-75
2022/10/18 05:34:34;;;;;;;98.70;25.05;;;12.20;99.90;;;;;;5017756;28;20033;-74
2022/10/18 05:37:00;;;;;;;122.82;24.92;;;12.20;99.90;;;;;;5017972;28;20437;-74
2022/10/18 05:39:25;;;;;;;112.47;24.77;;;12.20;99.90;;;;;;5017526;28;20478;-74
2022/10/18 05:41:51;;;;;;;92.95;21.33;;;12.10;99.90;;;;;;5016860;28;20026;-74
2022/10/18 05:44:16;;;;;;;102.88;22.23;;;12.10;99.90;;;;;;5018455;28;20036;-74
2022/10/18 05:46:42;;;;;;;123.35;21.63;;;12.10;99.90;;;;;;5029894;28;20116;-74
2022/10/18 05:49:10;;;;;;;120.28;22.00;;;12.00;99.90;;;;;;5018169;28;20037;-74
2022/10/18 05:51:36;;;;;;;111.20;20.52;;;12.00;99.90;;;;;;5027653;28;20377;-74
2022/10/18 05:54:02;;;;;;;97.95;19.33;;;11.90;99.90;;;;;;5018175;28;20113;-74
2022/10/18 05:56:27;;;;;;;65.43;17.50;;;11.90;99.90;;;;;;5032219;28;20030;-73
2022/10/18 05:58:53;;;;;;;79.43;18.67;;;11.80;99.90;;;;;;5024632;28;20392;-74
2022/10/18 06:01:18;;;;;;;83.50;17.23;;;11.80;99.90;;;;;;5026263;28;20076;-74
2022/10/18 06:03:44;;;;;;;117.47;21.02;;;11.70;99.90;;;;;;5026888;28;20030;-74
2022/10/18 06:06:11;;;;;;;72.30;15.43;;;11.80;99.90;;;;;;5028500;28;20029;-74
2022/10/18 06:08:38;;;;;;;122.47;19.60;;;11.80;99.90;;;;;;5030301;28;20036;-74
2022/10/18 06:11:16;;;;;;;92.05;18.30;;;11.80;99.90;;;;;;5017456;28;20081;-75
2022/10/18 06:13:43;;;;;;;108.35;21.15;;;11.80;99.90;;;;;;5018706;28;20511;-74
2022/10/18 06:16:10;;;;;;;104.53;21.63;;;11.80;99.90;;;;;;5026948;28;20026;-74
2022/10/18 06:18:36;;;;;;;120.18;25.23;;;11.60;99.90;;;;;;5021481;28;20036;-74
2022/10/18 06:21:01;;;;;;;105.68;26.45;;;11.40;99.90;;;;;;5024269;28;20097;-74
2022/10/18 06:23:27;;;;;;;69.88;17.17;;;11.20;99.90;;;;;;5017523;28;20030;-75
2022/10/18 06:25:57;;;;;;;71.97;15.68;;;11.10;99.90;;;;;;5016862;28;20026;-75
2022/10/18 06:28:22;;;;;;;59.67;13.45;;;11.10;99.90;;;;;;5022995;28;20040;-76
2022/10/18 06:30:48;;;;;;;54.55;14.90;;;11.00;99.90;;;;;;5052973;28;20029;-75
2022/10/18 06:33:13;;;;;;;110.45;16.35;;;10.90;99.90;;;;;;5056601;28;20079;-75
2022/10/18 06:35:39;;;;;;;58.65;13.00;;;10.70;99.90;;;;;;5038019;28;20477;-75
2022/10/18 06:38:05;;;;;;;67.70;11.55;;;10.70;99.90;;;;;;5036381;28;20028;-75
2022/10/18 06:40:36;;;;;;;34.88;9.38;;;10.80;99.90;;;;;;5036839;28;20018;-75
2022/10/18 06:43:05;;;;;;;55.33;10.45;;;10.80;99.90;;;;;;5037942;28;20055;-74
2022/10/18 06:45:32;;;;;;;56.90;12.25;;;10.70;99.90;;;;;;5056293;28;20028;-76
2022/10/18 06:47:57;;;;;;;67.32;10.85;;;10.80;99.90;;;;;;5055949;28;20037;-75
2022/10/18 06:50:23;;;;;;;39.60;8.57;;;10.80;99.90;;;;;;5037363;28;20028;-75
2022/10/18 06:52:51;;;;;;;76.05;12.93;;;10.70;99.90;;;;;;5023413;28;20021;-75
2022/10/18 06:55:17;;;;;;;64.85;9.30;;;10.70;99.90;;;;;;5032745;28;20038;-75
2022/10/18 06:57:42;;;;;;;90.22;10.93;;;10.80;99.90;;;;;;5016488;28;20033;-75
2022/10/18 07:00:08;;;;;;;48.70;9.07;;;10.80;99.90;;;;;;5016233;28;20061;-75
2022/10/18 07:02:34;;;;;;;51.90;8.43;;;10.80;99.90;;;;;;5016233;28;20022;-75
2022/10/18 07:04:59;;;;;;;65.95;9.15;;;10.70;99.90;;;;;;5016626;28;20428;-75
2022/10/18 07:07:25;;;;;;;61.10;7.55;;;10.70;99.90;;;;;;5015960;28;20084;-75
2022/10/18 07:09:50;;;;;;;49.53;6.78;;;10.70;99.90;;;;;;5016616;28;20468;-75
2022/10/18 07:12:16;;;;;;;57.00;7.90;;;10.60;99.90;;;;;;5031280;28;20037;-75
2022/10/18 07:14:42;;;;;;;67.78;9.32;;;10.50;99.90;;;;;;5016629;28;20022;-75
2022/10/18 07:17:08;;;;;;;48.58;7.45;;;10.40;99.90;;;;;;5024378;28;20531;-75
2022/10/18 07:19:33;;;;;;;65.82;8.07;;;10.40;99.90;;;;;;5033573;28;20416;-75
2022/10/18 07:21:59;;;;;;;46.38;7.53;;;10.50;99.90;;;;;;5034226;28;20018;-75
2022/10/18 07:24:24;;;;;;;47.63;6.30;;;10.50;99.90;;;;;;5030480;28;20052;-75
2022/10/18 07:26:50;;;;;;;56.35;6.72;;;10.50;99.90;;;;;;5015682;28;20030;-75
2022/10/18 07:29:15;;;;;;;58.35;7.65;;;10.40;99.90;;;;;;5015735;28;20463;-75
2022/10/18 07:31:41;;;;;;;61.33;6.35;;;10.40;99.90;;;;;;5018650;28;20029;-75
2022/10/18 07:34:09;;;;;;;54.60;8.32;;;10.50;99.90;;;;;;5023908;28;20029;-75
2022/10/18 07:36:34;;;;;;;70.80;10.15;;;10.70;99.90;;;;;;5027069;28;20466;-75
2022/10/18 07:39:00;;;;;;;41.67;7.32;;;10.90;99.90;;;;;;5015501;28;20053;-75
2022/10/18 07:41:25;;;;;;;66.63;7.82;;;11.20;99.90;;;;;;5014509;28;20026;-75
2022/10/18 07:43:52;;;;;;;71.95;9.35;;;11.30;99.90;;;;;;5015434;28;20049;-74
2022/10/18 07:46:19;;;;;;;58.15;7.47;;;11.50;99.90;;;;;;5014941;28;20038;-75
2022/10/18 07:48:45;;;;;;;59.33;6.88;;;11.60;99.90;;;;;;5019772;28;20033;-75
2022/10/18 07:51:11;;;;;;;56.70;7.85;;;11.90;99.90;;;;;;5030486;28;20030;-75
2022/10/18 07:53:37;;;;;;;75.93;8.52;;;11.90;99.90;;;;;;5020371;28;20036;-75
2022/10/18 07:56:06;;;;;;;67.40;6.03;;;11.90;99.90;;;;;;5031369;28;20014;-75
2022/10/18 07:58:32;;;;;;;45.63;6.32;;;12.00;99.90;;;;;;5035173;28;20060;-75
2022/10/18 08:01:05;;;;;;;62.67;7.53;;;12.10;99.90;;;;;;5033631;28;20072;-75
2022/10/18 08:03:31;;;;;;;60.75;8.20;;;12.20;99.90;;;;;;5034890;28;20068;-75
2022/10/18 08:05:57;;;;;;;74.70;6.95;;;12.30;99.90;;;;;;5029639;28;20077;-74
2022/10/18 08:08:23;;;;;;;58.22;6.18;;;12.40;99.90;;;;;;5015223;28;20033;-75
2022/10/18 08:10:49;;;;;;;43.42;5.35;;;12.50;99.90;;;;;;5028002;28;20147;-74
2022/10/18 08:13:15;;;;;;;70.40;7.43;;;12.60;99.90;;;;;;5026934;28;20117;-74
2022/10/18 08:15:41;;;;;;;90.45;6.70;;;12.80;99.90;;;;;;5013755;28;20018;-73
2022/10/18 08:18:06;;;;;;;64.00;6.70;;;12.90;99.90;;;;;;5033405;28;20026;-73
2022/10/18 08:20:32;;;;;;;61.97;6.95;;;12.80;99.90;;;;;;5023207;28;20030;-74
2022/10/18 08:22:58;;;;;;;48.10;6.10;;;12.90;99.90;;;;;;5024560;28;20032;-74
2022/10/18 08:25:24;;;;;;;64.45;5.95;;;12.90;99.90;;;;;;5015238;28;20116;-75
2022/10/18 08:27:49;;;;;;;53.28;5.53;;;12.80;99.90;;;;;;5026335;28;20454;-75
2022/10/18 08:30:15;;;;;;;47.60;5.93;;;12.90;99.90;;;;;;5014838;28;20095;-75
2022/10/18 08:32:41;;;;;;;59.72;6.75;;;13.00;99.90;;;;;;5014692;28;20096;-74
2022/10/18 08:35:06;;;;;;;52.55;5.35;;;13.10;99.90;;;;;;5014380;28;20037;-74
2022/10/18 08:37:32;;;;;;;53.78;5.40;;;13.20;99.90;;;;;;5014559;28;20053;-74
2022/10/18 08:39:58;;;;;;;56.88;5.55;;;13.40;99.90;;;;;;5030900;28;20459;-75
2022/10/18 08:42:51;;;;;;;64.30;6.20;;;13.70;99.90;;;;;;5034227;28;20036;-74
2022/10/18 08:45:17;;;;;;;62.45;7.15;;;13.70;99.90;;;;;;5034257;28;20104;-74
2022/10/18 08:47:45;;;;;;;61.88;6.65;;;13.70;99.90;;;;;;5021174;28;20099;-74
2022/10/18 08:50:19;;;;;;;43.97;6.75;;;13.50;99.90;;;;;;5022243;28;20032;-74
2022/10/18 08:53:00;;;;;;;43.67;5.93;;;13.50;99.90;;;;;;5018156;28;20104;-74
2022/10/18 08:55:28;;;;;;;49.97;6.32;;;13.40;99.90;;;;;;5019223;28;20025;-74
2022/10/18 08:57:56;;;;;;;38.38;5.05;;;13.70;99.90;;;;;;5034119;28;20017;-73
2022/10/18 09:00:26;;;;;;;42.10;4.60;;;13.70;99.90;;;;;;5033934;28;20028;-74
2022/10/18 09:03:21;;;;;;;43.20;6.60;;;13.70;99.90;;;;;;5034012;28;20059;-74
2022/10/18 09:06:36;;;;;;;35.72;5.10;;;13.90;99.90;;;;;;5032778;28;20029;-74
2022/10/18 09:09:04;;;;;;;46.08;5.30;;;13.90;99.90;;;;;;5030198;28;20088;-74
2022/10/18 09:11:39;;;;;;;40.20;5.50;;;13.90;99.90;;;;;;5033957;28;20033;-75
2022/10/18 09:14:24;;;;;;;37.38;6.68;;;14.00;99.90;;;;;;5034244;28;20494;-74
2022/10/18 09:16:54;;;;;;;34.72;5.18;;;14.20;99.90;;;;;;5032383;28;20045;-74
2022/10/18 09:19:23;;;;;;;32.60;5.80;;;14.10;99.90;;;;;;5031755;28;20029;-74
2022/10/18 09:21:54;;;;;;;48.63;4.85;;;14.20;99.90;;;;;;5014026;28;20061;-74
2022/10/18 09:24:39;;;;;;;33.22;5.13;;;14.20;99.90;;;;;;5013786;28;20053;-75
2022/10/18 09:27:15;;;;;;;46.40;4.72;;;14.30;99.90;;;;;;5022583;28;20058;-74
2022/10/18 09:30:08;;;;;;;36.22;4.45;;;14.40;99.90;;;;;;5019981;28;20083;-75
2022/10/18 09:32:52;;;;;;;21.60;4.40;;;14.40;99.90;;;;;;5027043;28;20122;-74
2022/10/18 09:35:26;;;;;;;30.27;4.05;;;14.50;99.90;;;;;;5016511;28;20042;-74
2022/10/18 09:37:59;;;;;;;;;;;14.50;99.90;;;;;;5021242;28;20018;-75
2022/10/18 09:40:31;;;;;;;31.70;4.60;;;14.50;99.90;;;;;;5014851;28;19988;-75
2022/10/18 09:43:37;;;;;;;30.35;4.50;;;14.60;99.90;;;;;;5013804;28;20061;-74
2022/10/18 09:46:04;;;;;;;37.97;5.70;;;14.60;99.90;;;;;;5007839;28;20026;-74
2022/10/18 09:48:48;;;;;;;25.30;4.45;;;14.70;99.90;;;;;;5051591;23;20377;-71
2022/10/18 09:51:27;;;;;;;30.85;4.10;;;14.80;99.90;;;;;;5023392;28;20068;-71
2022/10/18 09:54:17;;;;;;;19.60;3.13;;;14.70;99.90;;;;;;5021148;28;20029;-71
2022/10/18 09:57:02;;;;;;;18.23;3.63;;;14.70;99.90;;;;;;5025874;28;20435;-71
2022/10/18 09:59:46;;;;;;;19.65;3.55;;;14.70;99.90;;;;;;5018594;28;20018;-71
2022/10/18 10:02:14;;;;;;;27.13;4.03;;;14.80;99.90;;;;;;5033567;28;20017;-71
2022/10/18 10:04:40;;;;;;;26.25;4.13;;;14.80;99.90;;;;;;5026427;28;20393;-72
2022/10/18 10:07:14;;;;;;;36.28;5.28;;;14.80;99.90;;;;;;5017704;28;20045;-71
2022/10/18 10:09:46;;;;;;;28.98;5.22;;;14.70;99.90;;;;;;5017080;28;20058;-71
2022/10/18 10:12:29;;;;;;;32.58;4.25;;;14.60;99.90;;;;;;5035488;28;20052;-71
2022/10/18 10:15:26;;;;;;;30.48;3.95;;;14.60;99.90;;;;;;5034189;28;20380;-71
2022/10/18 10:18:19;;;;;;;28.98;5.53;;;14.50;99.90;;;;;;5031040;28;20037;-72
2022/10/18 10:20:49;;;;;;;23.27;3.72;;;14.30;99.90;;;;;;5032023;28;20045;-72
2022/10/18 10:23:31;;;;;;;18.88;3.30;;;14.20;99.90;;;;;;5036699;28;20039;-71
2022/10/18 10:26:03;;;;;;;23.38;4.30;;;14.20;99.90;;;;;;5035501;28;20071;-71
2022/10/18 10:28:33;;;;;;;21.33;4.05;;;14.10;99.90;;;;;;5031979;28;20129;-71
2022/10/18 10:31:23;;;;;;;20.25;2.97;;;14.30;99.90;;;;;;5028029;28;20104;-71
2022/10/18 10:34:03;;;;;;;31.75;4.25;;;14.50;99.90;;;;;;5025200;28;20033;-72
2022/10/18 10:36:30;;;;;;;31.20;3.95;;;14.60;99.90;;;;;;5021766;28;20032;-72
2022/10/18 10:39:05;;;;;;;31.30;4.45;;;14.90;99.90;;;;;;5032482;28;20026;-72
2022/10/18 10:41:31;;;;;;;29.83;4.53;;;15.10;99.90;;;;;;5035358;28;20431;-72
2022/10/18 10:43:57;;;;;;;27.15;4.25;;;15.30;99.90;;;;;;5020735;28;20025;-72
2022/10/18 10:46:31;;;;;;;21.90;3.67;;;15.30;99.90;;;;;;5026068;28;20534;-72
2022/10/18 10:48:58;;;;;;;23.63;3.15;;;15.50;99.90;;;;;;5034199;28;20088;-72
2022/10/18 10:51:36;;;;;;;25.27;3.65;;;15.40;99.90;;;;;;5036049;28;20037;-72
2022/10/18 10:54:14;;;;;;;28.00;3.33;;;15.20;99.90;;;;;;5027511;28;20113;-72
2022/10/18 10:57:10;;;;;;;23.75;4.75;;;15.00;99.90;;;;;;5020746;28;20014;-72
2022/10/18 10:59:54;;;;;;;26.00;4.13;;;15.00;99.90;;;;;;5032190;28;20400;-72
2022/10/18 11:02:21;;;;;;;;;;;15.20;99.90;;;;;;5033172;28;20044;-71
2022/10/18 11:04:49;;;;;;;22.63;3.42;;;15.50;99.90;;;;;;5017849;28;19945;-72
2022/10/18 11:07:22;;;;;;;34.60;4.07;;;15.60;99.90;;;;;;5030617;28;20038;-72
2022/10/18 11:10:08;;;;;;;26.27;3.13;;;15.70;99.90;;;;;;5036092;28;20500;-72
2022/10/18 11:12:43;;;;;;;21.73;3.17;;;15.80;99.90;;;;;;5035620;28;20025;-72
2022/10/18 11:15:09;;;;;;;22.52;3.95;;;15.90;99.90;;;;;;5035681;28;20567;-72
2022/10/18 11:18:08;;;;;;;23.77;3.50;;;15.90;99.90;;;;;;5035682;28;20025;-72
2022/10/18 11:20:50;;;;;;;24.60;4.80;;;15.80;99.90;;;;;;5016076;28;20022;-72
2022/10/18 11:23:16;;;;;;;23.02;3.35;;;15.80;99.90;;;;;;5023495;28;20060;-72
2022/10/18 11:26:07;;;;;;;19.35;3.22;;;15.90;99.90;;;;;;5032214;28;20034;-72
2022/10/18 11:29:15;;;;;;;21.73;3.33;;;15.80;99.90;;;;;;5031936;28;20025;-72
2022/10/18 11:32:10;;;;;;;17.85;3.38;;;15.50;99.90;;;;;;5034925;28;20392;-73
2022/10/18 11:35:14;;;;;;;21.15;3.67;;;15.30;99.90;;;;;;5035346;28;20062;-73
2022/10/18 11:37:49;;;;;;;24.17;3.22;;;15.20;99.90;;;;;;5009780;28;20045;-72
2022/10/18 11:40:36;;;;;;;27.40;4.38;;;15.20;99.90;;;;;;5035141;28;20022;-72
2022/10/18 11:43:10;;;;;;;14.50;2.78;;;15.20;99.90;;;;;;5023834;28;20511;-72
2022/10/18 11:46:10;;;;;;;29.00;4.28;;;15.30;99.90;;;;;;5032457;28;20033;-72
2022/10/18 11:49:10;;;;;;;17.67;3.45;;;15.30;99.90;;;;;;5028452;28;20025;-72
2022/10/18 11:51:45;;;;;;;21.67;3.38;;;15.20;99.90;;;;;;5022235;28;20036;-72
2022/10/18 11:54:30;;;;;;;16.70;3.10;;;15.10;99.90;;;;;;5034858;28;20051;-72
2022/10/18 11:57:16;;;;;;;16.88;3.83;;;14.90;99.90;;;;;;5028275;28;20401;-72
2022/10/18 11:59:59;;;;;;;29.08;5.15;;;14.90;99.90;;;;;;5015080;28;20118;-72
2022/10/18 12:03:00;;;;;;;17.90;3.37;;;14.90;99.90;;;;;;5015275;28;20492;-73
2022/10/18 12:05:28;;;;;;;19.10;2.85;;;14.90;99.90;;;;;;5013756;28;20033;-72
2022/10/18 12:08:13;;;;;;;22.88;2.70;;;14.90;99.90;;;;;;5020047;28;20017;-73
2022/10/18 12:10:42;;;;;;;22.70;3.28;;;15.00;99.90;;;;;;5034728;28;20025;-72
2022/10/18 12:13:15;;;;;;;23.85;3.83;;;15.00;99.90;;;;;;5030238;28;20041;-72
2022/10/18 12:15:42;;;;;;;20.85;3.22;;;15.00;99.90;;;;;;5017419;28;20116;-73
2022/10/18 12:18:15;;;;;;;21.63;2.80;;;15.00;99.90;;;;;;5033632;28;20443;-72
2022/10/18 12:20:47;;;;;;;23.48;4.32;;;15.00;99.90;;;;;;5032779;28;20026;-72
2022/10/18 12:23:19;;;;;;;32.05;4.60;;;15.10;99.90;;;;;;5034411;28;20036;-72
2022/10/18 12:25:54;;;;;;;12.85;2.78;;;15.10;99.90;;;;;;5018799;28;20052;-72
2022/10/18 12:28:43;;;;;;;15.32;2.65;;;15.10;99.90;;;;;;5019912;28;20044;-73
2022/10/18 12:31:33;;;;;;;17.13;2.30;;;15.10;99.90;;;;;;5032783;28;20036;-72
2022/10/18 12:34:23;;;;;;;23.88;3.83;;;15.10;99.90;;;;;;5034498;28;20025;-72
2022/10/18 12:37:34;;;;;;;16.80;3.75;;;15.00;99.90;;;;;;5031641;28;20025;-72
2022/10/18 12:40:23;;;;;;;26.30;4.97;;;15.10;99.90;;;;;;5034604;28;20022;-72
2022/10/18 12:42:51;;;;;;;20.80;3.70;;;15.00;99.90;;;;;;5016612;28;20034;-72
2022/10/18 12:45:33;;;;;;;24.90;2.67;;;15.00;99.90;;;;;;5014277;28;20547;-72
2022/10/18 12:48:03;;;;;;;19.15;2.92;;;15.10;99.90;;;;;;5016677;28;20046;-73
2022/10/18 12:50:34;;;;;;;20.85;3.55;;;15.20;99.90;;;;;;5014256;28;20041;-72
2022/10/18 12:53:05;;;;;;;12.80;2.78;;;15.30;99.90;;;;;;5020915;28;20052;-72